Nearby METAR Reports

 

KSJC - San Jose, California, USA
Distance from station: NE 14km
Actualización: 18/02/2018 17:53
Muy nuboso
Muy nuboso
 Viento del ONO
Viento: ONO 31 km/h
Temperatura: 12°C
Rocío: 2°C
Humedad: 51%
Barómetro: 1014.9 hPa
Clouds: Muy nuboso
Visibility: 16 km
Cloud details: Few Clouds 1067 m
Parcialmente nuboso 1311 m
Muy nuboso 2438 m
2018/02/19 00:53 KSJC 190053Z 29017KT 10SM FEW035 SCT043 BKN080 12/02 A2997 RMK AO2 PK WND 30030/0017 SLP148 T01170017
KNUQ - Moffett Nas/Mtn, California, USA
Distance from station: N 14km
Actualización: 18/02/2018 17:56
Despejado
Despejado
 Viento del ONO
Viento: ONO 26 km/h, Racha: 46 km/h
Temperatura: 10°C
Wind Chill: 7°C
Rocío: 2°C
Humedad: 58%
Barómetro: 1014.9 hPa
Clouds: Despejado
Visibility: 16 km
2018/02/19 00:56 KNUQ 190056Z 30014G25KT 10SM CLR 10/02 A2997 RMK AO2 PK WND 29028/0029 SLP150 T01000017
 
KPAO - Palo Alto, California, USA
Distance from station: NNO 23km
Actualización: 18/02/2018 18:47
Muy nuboso
Muy nuboso
 Viento del O
Viento: O 31 km/h, Racha: 43 km/h
Clouds: Muy nuboso
Visibility: 16 km
Cloud details: Muy nuboso 1067 m
2018/02/19 01:47 KPAO 190147Z 28017G23KT 10SM BKN035 --/-- A2997
KRHV - San Jose/Reid, California, USA
Distance from station: ENE 19km
Actualización: 18/02/2018 17:47
Muy nuboso
Muy nuboso
 Viento del NO
Viento: NO 28 km/h
Temperatura: 11°C
Rocío: 2°C
Humedad: 54%
Barómetro: 1014.2 hPa
Clouds: Muy nuboso
Visibility: 16 km
Cloud details: Muy nuboso 1067 m
2018/02/19 00:47 KRHV 190047Z 32015KT 10SM BKN035 11/02 A2995
 
KOAK - Oakland, California, USA
Distance from station: NNO 50km
Actualización: 18/02/2018 17:53
Few Clouds
Few Clouds
 Viento del O
Viento: O 37 km/h, Racha: 56 km/h
Temperatura: 11°C
Rocío: 3°C
Humedad: 58%
Barómetro: 1014.2 hPa
Clouds: Few Clouds
Visibility: 16 km
Cloud details: Few Clouds 610 m
Few Clouds 1524 m
2018/02/19 00:53 KOAK 190053Z 28020G30KT 10SM FEW020 FEW050 11/03 A2995 RMK AO2 PK WND 28033/0028 SLP142 T01060033
KSQL - San Carlos Airpo, California, USA
Distance from station: NO 34km
Actualización: 18/02/2018 17:47
Parcialmente nuboso
Parcialmente nuboso
 Viento del O
Viento: O 31 km/h, Racha: 50 km/h
Temperatura: 10°C
Wind Chill: 7°C
Rocío: 2°C
Humedad: 58%
Barómetro: 1015.2 hPa
Clouds: Parcialmente nuboso
Visibility: 16 km
Cloud details: Parcialmente nuboso 1006 m
Parcialmente nuboso 1250 m
2018/02/19 00:47 KSQL 190047Z 28017G27KT 10SM SCT033 SCT041 10/02 A2998
 
KSFO - San Francisco, California, USA
Distance from station: NO 49km
Actualización: 18/02/2018 17:56
Parcialmente nuboso
Parcialmente nuboso
 Viento del ONO
Viento: ONO 44 km/h, Racha: 59 km/h
Temperatura: 10°C
Wind Chill: 6°C
Rocío: 2°C
Humedad: 58%
Barómetro: 1014.9 hPa
Clouds: Parcialmente nuboso
Visibility: 16 km
Cloud details: Few Clouds 701 m
Parcialmente nuboso 1829 m
Parcialmente nuboso 4572 m
2018/02/19 00:56 KSFO 190056Z 29024G32KT 10SM FEW023 SCT060 SCT150 10/02 A2997 RMK AO2 PK WND 27035/0019 SLP147 T01000022 $
KE16 - San Martin, California, USA
Distance from station: ESE 43km
Actualización: 18/02/2018 18:15
Muy nuboso
Muy nuboso
 Viento del ONO
Viento: ONO 24 km/h, Racha: 33 km/h
Temperatura: 10°C
Wind Chill: 7°C
Rocío: 1°C
Humedad: 54%
Barómetro: 1014.9 hPa
Clouds: Muy nuboso
Visibility: 16 km
Cloud details: Muy nuboso 1250 m
Muy nuboso 1524 m
2018/02/19 01:15 KE16 190115Z AUTO 30013G18KT 10SM BKN041 BKN050 10/01 A2997 RMK AO2
 
KWVI - Watsonville, California, USA
Distance from station: SSE 44km
Actualización: 18/02/2018 17:53
Muy nuboso
Muy nuboso
 Viento del O
Viento: O 19 km/h, Racha: 37 km/h
Temperatura: 11°C
Rocío: 2°C
Humedad: 54%
Barómetro: 1014.9 hPa
Clouds: Muy nuboso
Visibility: 16 km
Cloud details: Muy nuboso 1676 m
Muy nuboso 2134 m
2018/02/19 00:53 KWVI 190053Z AUTO 27010G20KT 10SM BKN055 BKN070 11/02 A2997 RMK AO2 SLP149 T01110022
KHAF - Half Moon Bay, California, USA
Distance from station: ONO 50km
Actualización: 18/02/2018 18:15
Haze, Muy nuboso
Haze, Muy nuboso
 Viento del NNO
Viento: NNO 35 km/h, Racha: 46 km/h
Temperatura: 10°C
Wind Chill: 6°C
Rocío: 4°C
Humedad: 67%
Barómetro: 1014.6 hPa
Resumen: Haze
Clouds: Muy nuboso
Visibility: 10 km
Cloud details: Parcialmente nuboso 853 m
Muy nuboso 1189 m
2018/02/19 01:15 KHAF 190115Z AUTO 33019G25KT 6SM HZ SCT028 BKN039 10/04 A2996 RMK AO2
 
KHWD - Hayward, California, USA
Distance from station: N 44km
Actualización: 18/02/2018 17:54
Despejado
Despejado
 Viento del ONO
Viento: ONO 37 km/h, Racha: 54 km/h
Temperatura: 11°C
Rocío: 2°C
Humedad: 54%
Barómetro: 1014.2 hPa
Clouds: Despejado
Visibility: 16 km
2018/02/19 00:54 KHWD 190054Z 29020G29KT 10SM CLR 11/02 A2995 RMK AO2 PK WND 29031/2355 SLP152 T01060017
KLVK - Livermore, California, USA
Distance from station: NNE 51km
Actualización: 18/02/2018 17:53
Few Clouds
Few Clouds
 Viento del O
Viento: O 31 km/h, Racha: 43 km/h
Temperatura: 10°C
Wind Chill: 7°C
Rocío: 3°C
Humedad: 62%
Barómetro: 1013.2 hPa
Clouds: Few Clouds
Visibility: 16 km
Cloud details: Few Clouds 1189 m
2018/02/19 00:53 KLVK 190053Z 26017G23KT 10SM FEW039 10/03 A2992 RMK AO2 PK WND 25028/2359 SLP131 T01000028